createdAt,value
2019-05-26T00:00:36.822Z,0.60
2019-05-26T00:01:36.786Z,0.70
2019-05-26T00:02:36.782Z,0.50
2019-05-26T00:03:36.785Z,0.60
2019-05-26T00:04:36.757Z,0.60
2019-05-26T00:05:36.740Z,0.50
2019-05-26T00:06:36.736Z,0.60
2019-05-26T00:07:36.718Z,0.60
2019-05-26T00:08:36.707Z,0.70
2019-05-26T00:09:36.705Z,0.60
2019-05-26T00:10:36.683Z,0.60
2019-05-26T00:11:36.679Z,0.80
2019-05-26T00:12:36.665Z,0.60
2019-05-26T00:13:36.654Z,0.50
2019-05-26T00:14:36.660Z,0.60
2019-05-26T00:15:36.631Z,0.60
2019-05-26T00:16:36.619Z,0.60
2019-05-26T00:17:36.617Z,0.70
2019-05-26T00:18:36.608Z,0.60
2019-05-26T00:19:36.607Z,0.70
2019-05-26T00:20:36.584Z,0.60
2019-05-26T00:21:36.570Z,0.60
2019-05-26T00:22:36.559Z,0.70
2019-05-26T00:23:36.546Z,0.60
2019-05-26T00:24:36.579Z,0.70
2019-05-26T00:25:36.528Z,0.70
2019-05-26T00:26:36.508Z,0.60
2019-05-26T00:27:36.496Z,0.60
2019-05-26T00:29:36.479Z,0.60
2019-05-26T00:30:46.983Z,0.50
2019-05-26T00:31:36.459Z,0.70
2019-05-26T00:32:36.448Z,0.60
2019-05-26T00:33:36.431Z,0.60
2019-05-26T00:34:36.420Z,0.60
2019-05-26T00:35:36.411Z,0.60
2019-05-26T00:36:36.441Z,0.70
2019-05-26T00:37:48.615Z,0.60
2019-05-26T00:38:37.379Z,0.60
2019-05-26T00:39:36.365Z,0.70
2019-05-26T00:40:36.358Z,0.70
2019-05-26T00:41:36.340Z,0.60
2019-05-26T00:42:36.336Z,0.60
2019-05-26T00:43:36.318Z,0.70
2019-05-26T00:44:36.307Z,0.70
2019-05-26T00:45:36.302Z,0.70
2019-05-26T00:46:36.288Z,0.60
2019-05-26T00:47:36.308Z,0.70
2019-05-26T00:48:36.261Z,0.50
2019-05-26T00:49:36.253Z,0.70
2019-05-26T00:50:36.240Z,0.60
2019-05-26T00:51:36.237Z,0.60
2019-05-26T00:52:36.218Z,0.60
2019-05-26T00:53:36.216Z,0.60
2019-05-26T00:54:36.195Z,0.60
2019-05-26T00:55:36.189Z,0.70
2019-05-26T00:56:36.172Z,0.70
2019-05-26T00:57:36.167Z,0.60
2019-05-26T00:58:36.192Z,0.80
2019-05-26T00:59:36.140Z,0.60
2019-05-26T01:01:46.245Z,0.70
2019-05-26T01:02:36.104Z,0.60
2019-05-26T01:03:36.091Z,0.70
2019-05-26T01:04:36.099Z,0.50
2019-05-26T01:05:36.081Z,0.60
2019-05-26T01:06:36.064Z,0.70
2019-05-26T01:07:36.056Z,0.70
2019-05-26T01:08:36.040Z,0.50
2019-05-26T01:09:36.044Z,0.70
2019-05-26T01:10:36.017Z,0.60
2019-05-26T01:11:36.006Z,0.80
2019-05-26T01:12:36.001Z,0.60
2019-05-26T01:13:35.984Z,0.80
2019-05-26T01:14:35.978Z,0.60
2019-05-26T01:15:36.002Z,0.70
2019-05-26T01:16:35.956Z,0.80
2019-05-26T01:17:35.943Z,0.80
2019-05-26T01:18:35.933Z,0.60
2019-05-26T01:19:35.923Z,0.70
2019-05-26T01:20:35.905Z,0.70
2019-05-26T01:21:35.907Z,0.70
2019-05-26T01:22:35.940Z,0.60
2019-05-26T01:23:35.872Z,0.60
2019-05-26T01:24:35.858Z,0.70
2019-05-26T01:25:35.858Z,0.60
2019-05-26T01:26:35.841Z,0.70
2019-05-26T01:27:35.836Z,0.60
2019-05-26T01:28:35.823Z,0.70
2019-05-26T01:29:35.810Z,0.70
2019-05-26T01:30:35.801Z,0.70
2019-05-26T01:32:45.695Z,0.70
2019-05-26T01:33:35.767Z,0.80
2019-05-26T01:34:35.756Z,0.70
2019-05-26T01:35:35.746Z,0.70
2019-05-26T01:36:35.773Z,0.60
2019-05-26T01:37:35.719Z,0.70
2019-05-26T01:38:35.704Z,0.70
2019-05-26T01:39:35.700Z,0.80
2019-05-26T01:40:35.694Z,0.70
2019-05-26T01:41:35.675Z,0.80
2019-05-26T01:42:35.676Z,0.70
2019-05-26T01:43:35.650Z,0.80
2019-05-26T01:44:35.646Z,0.70
2019-05-26T01:45:35.632Z,0.60
2019-05-26T01:46:35.617Z,0.70
2019-05-26T01:47:35.631Z,0.60
2019-05-26T01:48:35.597Z,0.80
2019-05-26T01:49:35.588Z,0.70
2019-05-26T01:50:35.573Z,0.70
2019-05-26T01:51:35.562Z,0.70
2019-05-26T01:52:35.553Z,0.70
2019-05-26T01:53:35.550Z,0.70
2019-05-26T01:54:35.536Z,0.70
2019-05-26T01:55:35.523Z,0.70
2019-05-26T01:56:35.512Z,0.70
2019-05-26T01:57:35.502Z,0.80
2019-05-26T01:58:35.529Z,0.70
2019-05-26T01:59:35.479Z,0.70
2019-05-26T02:00:35.467Z,0.70
2019-05-26T02:01:35.453Z,0.80
2019-05-26T02:02:35.452Z,0.70
2019-05-26T02:03:47.608Z,0.80
2019-05-26T02:04:35.459Z,0.80
2019-05-26T02:05:35.412Z,0.70
2019-05-26T02:06:35.400Z,0.70
2019-05-26T02:07:35.395Z,0.70
2019-05-26T02:08:39.297Z,0.80
2019-05-26T02:09:35.368Z,0.90
2019-05-26T02:10:35.394Z,0.70
2019-05-26T02:11:35.342Z,0.80
2019-05-26T02:12:35.332Z,0.80
2019-05-26T02:13:35.329Z,0.70
2019-05-26T02:14:35.308Z,0.80
2019-05-26T02:15:35.298Z,0.70
2019-05-26T02:16:35.322Z,0.60
2019-05-26T02:17:35.281Z,0.70
2019-05-26T02:18:35.271Z,0.60
2019-05-26T02:19:35.261Z,0.70
2019-05-26T02:20:35.248Z,0.70
2019-05-26T02:21:35.234Z,0.80
2019-05-26T02:22:35.262Z,0.70
2019-05-26T02:23:35.218Z,0.60
2019-05-26T02:24:35.204Z,0.60
2019-05-26T02:25:35.195Z,0.70
2019-05-26T02:26:35.179Z,0.70
2019-05-26T02:27:35.167Z,0.70
2019-05-26T02:28:35.169Z,0.70
2019-05-26T02:29:35.143Z,0.70
2019-05-26T02:30:35.136Z,0.80
2019-05-26T02:31:35.133Z,0.70
2019-05-26T02:32:35.158Z,0.70
2019-05-26T02:33:35.106Z,0.80
2019-05-26T02:34:45.334Z,0.70
2019-05-26T02:35:35.087Z,0.70
2019-05-26T02:36:35.071Z,0.60
2019-05-26T02:37:35.066Z,0.80
2019-05-26T02:38:35.054Z,0.80
2019-05-26T02:39:35.039Z,0.60
2019-05-26T02:40:35.030Z,0.80
2019-05-26T02:41:35.014Z,0.70
2019-05-26T02:42:35.018Z,0.80
2019-05-26T02:43:35.037Z,0.60
2019-05-26T02:44:34.979Z,0.70
2019-05-26T02:45:34.977Z,0.80
2019-05-26T02:46:34.963Z,0.70
2019-05-26T02:47:34.950Z,0.70
2019-05-26T02:48:34.941Z,0.70
2019-05-26T02:49:34.942Z,0.80
2019-05-26T02:50:34.926Z,0.70
2019-05-26T02:51:35.634Z,0.60
2019-05-26T02:52:34.892Z,0.70
2019-05-26T02:53:34.884Z,0.70
2019-05-26T02:54:34.910Z,0.80
2019-05-26T02:55:34.871Z,0.80
2019-05-26T02:56:34.855Z,0.70
2019-05-26T02:57:34.839Z,0.80
2019-05-26T02:58:34.830Z,0.90
2019-05-26T02:59:34.816Z,0.70
2019-05-26T03:00:34.819Z,0.70
2019-05-26T03:01:34.795Z,0.70
2019-05-26T03:02:34.785Z,0.70
2019-05-26T03:03:34.776Z,0.70
2019-05-26T03:04:34.761Z,0.70
2019-05-26T03:05:45.240Z,0.70
2019-05-26T03:06:34.755Z,0.70
2019-05-26T03:07:34.734Z,0.80
2019-05-26T03:08:34.717Z,0.70
2019-05-26T03:09:34.706Z,0.70
2019-05-26T03:10:34.697Z,0.80
2019-05-26T03:11:34.701Z,0.70
2019-05-26T03:12:34.679Z,0.60
2019-05-26T03:13:34.665Z,0.70
2019-05-26T03:14:34.657Z,0.60
2019-05-26T03:15:34.646Z,0.70
2019-05-26T03:16:34.646Z,0.70
2019-05-26T03:17:34.651Z,0.70
2019-05-26T03:18:34.632Z,0.70
2019-05-26T03:19:34.598Z,0.80
2019-05-26T03:20:34.589Z,0.80
2019-05-26T03:21:34.577Z,0.60
2019-05-26T03:22:34.580Z,0.80
2019-05-26T03:23:34.556Z,0.80
2019-05-26T03:24:34.545Z,0.70
2019-05-26T03:25:34.535Z,0.70
2019-05-26T03:26:34.522Z,0.60
2019-05-26T03:27:34.548Z,0.70
2019-05-26T03:28:34.498Z,0.80
2019-05-26T03:29:34.491Z,0.80
2019-05-26T03:30:34.488Z,0.70
2019-05-26T03:31:34.466Z,0.60
2019-05-26T03:32:34.460Z,0.60
2019-05-26T03:33:34.457Z,0.60
2019-05-26T03:34:34.443Z,0.70
2019-05-26T03:35:34.428Z,0.80
2019-05-26T03:36:45.197Z,0.70
2019-05-26T03:37:34.444Z,0.70
2019-05-26T03:38:34.389Z,0.70
2019-05-26T03:39:44.292Z,0.70
2019-05-26T03:40:35.368Z,0.70
2019-05-26T03:41:34.356Z,0.60
2019-05-26T03:42:34.344Z,0.70
2019-05-26T03:43:34.348Z,0.80
2019-05-26T03:44:34.328Z,0.80
2019-05-26T03:45:34.318Z,0.60
2019-05-26T03:46:34.312Z,0.70
2019-05-26T03:47:34.300Z,0.60
2019-05-26T03:48:34.322Z,0.70
2019-05-26T03:49:34.269Z,0.90
2019-05-26T03:50:34.257Z,0.80
2019-05-26T03:51:34.251Z,0.80
2019-05-26T03:52:34.244Z,0.70
2019-05-26T03:53:34.230Z,0.80
2019-05-26T03:54:34.259Z,0.70
2019-05-26T03:55:34.207Z,0.70
2019-05-26T03:56:34.194Z,0.70
2019-05-26T03:57:34.179Z,0.70
2019-05-26T03:58:34.175Z,0.60
2019-05-26T03:59:34.167Z,0.50
2019-05-26T04:00:34.160Z,0.70
2019-05-26T04:01:34.136Z,0.70
2019-05-26T04:02:34.128Z,0.70
2019-05-26T04:03:34.123Z,0.60
2019-05-26T04:04:34.102Z,0.60
2019-05-26T04:05:34.114Z,0.70
2019-05-26T04:06:34.090Z,0.80
2019-05-26T04:07:44.413Z,0.70
2019-05-26T04:08:34.061Z,0.70
2019-05-26T04:09:34.052Z,0.60
2019-05-26T04:10:34.038Z,0.60
2019-05-26T04:11:34.035Z,0.70
2019-05-26T04:12:34.021Z,0.80
2019-05-26T04:13:34.010Z,0.70
2019-05-26T04:14:34.006Z,0.80
2019-05-26T04:15:33.993Z,0.70
2019-05-26T04:16:34.011Z,0.70
2019-05-26T04:17:33.963Z,0.70
2019-05-26T04:18:33.954Z,0.70
2019-05-26T04:19:33.942Z,0.80
2019-05-26T04:20:34.767Z,0.70
2019-05-26T04:21:33.923Z,0.80
2019-05-26T04:22:33.940Z,0.70
2019-05-26T04:23:33.898Z,0.80
2019-05-26T04:24:33.882Z,0.60
2019-05-26T04:25:33.869Z,0.70
2019-05-26T04:26:33.867Z,0.70
2019-05-26T04:27:33.860Z,0.60
2019-05-26T04:28:33.849Z,0.60
2019-05-26T04:29:33.828Z,0.70
2019-05-26T04:30:33.819Z,0.70
2019-05-26T04:31:33.804Z,0.80
2019-05-26T04:32:33.830Z,0.80
2019-05-26T04:33:33.783Z,0.70
2019-05-26T04:34:33.772Z,0.70
2019-05-26T04:35:33.773Z,0.80
2019-05-26T04:36:33.752Z,0.70
2019-05-26T04:37:33.736Z,0.70
2019-05-26T04:38:46.325Z,0.60
2019-05-26T04:39:33.713Z,0.70
2019-05-26T04:40:33.710Z,0.70
2019-05-26T04:41:33.692Z,0.80
2019-05-26T04:42:33.684Z,0.70
2019-05-26T04:43:33.671Z,0.60
2019-05-26T04:44:33.669Z,0.70
2019-05-26T04:45:33.650Z,0.70
2019-05-26T04:46:33.635Z,0.70
2019-05-26T04:47:33.628Z,0.80
2019-05-26T04:48:33.656Z,0.80
2019-05-26T04:49:37.330Z,0.70
2019-05-26T04:50:33.595Z,0.70
2019-05-26T04:51:33.580Z,0.70
2019-05-26T04:52:33.567Z,0.60
2019-05-26T04:53:33.556Z,0.80
2019-05-26T04:54:33.586Z,0.80
2019-05-26T04:55:33.542Z,0.80
2019-05-26T04:56:33.529Z,0.80
2019-05-26T04:57:33.519Z,0.70
2019-05-26T04:58:33.502Z,0.80
2019-05-26T04:59:33.493Z,0.70
2019-05-26T05:00:33.541Z,0.70
2019-05-26T05:01:33.472Z,0.80
2019-05-26T05:02:33.456Z,0.80
2019-05-26T05:03:33.453Z,0.80
2019-05-26T05:04:33.443Z,0.80
2019-05-26T05:05:33.430Z,0.70
2019-05-26T05:06:33.458Z,0.80
2019-05-26T05:07:33.410Z,0.80
2019-05-26T05:08:33.396Z,0.90
2019-05-26T05:09:44.299Z,0.90
2019-05-26T05:10:42.504Z,0.90
2019-05-26T05:11:34.366Z,1.00
2019-05-26T05:12:33.350Z,0.90
2019-05-26T05:13:33.338Z,0.70
2019-05-26T05:14:33.329Z,0.90
2019-05-26T05:15:33.314Z,0.80
2019-05-26T05:16:33.342Z,0.80
2019-05-26T05:17:33.291Z,0.80
2019-05-26T05:18:33.285Z,0.80
2019-05-26T05:19:33.268Z,0.90
2019-05-26T05:20:33.257Z,1.00
2019-05-26T05:21:33.255Z,1.00
2019-05-26T05:22:33.277Z,0.90
2019-05-26T05:23:33.223Z,1.00
2019-05-26T05:24:33.227Z,1.00
2019-05-26T05:25:33.204Z,1.10
2019-05-26T05:26:33.196Z,0.90
2019-05-26T05:27:33.180Z,0.80
2019-05-26T05:28:33.184Z,0.90
2019-05-26T05:29:33.164Z,0.80
2019-05-26T05:30:33.278Z,0.90
2019-05-26T05:31:33.140Z,0.90
2019-05-26T05:32:33.180Z,1.00
2019-05-26T05:33:33.121Z,0.90
2019-05-26T05:34:33.104Z,1.00
2019-05-26T05:35:33.097Z,1.20
2019-05-26T05:36:33.085Z,0.90
2019-05-26T05:37:33.088Z,1.10
2019-05-26T05:38:33.070Z,1.00
2019-05-26T05:39:33.047Z,1.00
2019-05-26T05:40:58.394Z,1.00
2019-05-26T05:41:34.022Z,1.00
2019-05-26T05:42:33.021Z,1.00
2019-05-26T05:43:33.009Z,1.00
2019-05-26T05:44:33.027Z,1.00
2019-05-26T05:45:32.978Z,0.90
2019-05-26T05:46:32.971Z,1.00
2019-05-26T05:47:32.963Z,0.90
2019-05-26T05:48:32.950Z,1.00
2019-05-26T05:49:32.937Z,1.00
2019-05-26T05:50:32.931Z,0.90
2019-05-26T05:51:32.911Z,1.00
2019-05-26T05:52:32.901Z,1.00
2019-05-26T05:53:32.888Z,1.00
2019-05-26T05:54:32.883Z,1.00
2019-05-26T05:55:32.881Z,0.90
2019-05-26T05:56:32.864Z,0.90
2019-05-26T05:57:32.844Z,0.90
2019-05-26T05:58:32.839Z,1.00
2019-05-26T05:59:32.822Z,0.90
2019-05-26T06:00:32.853Z,0.90
2019-05-26T06:01:32.805Z,1.10
2019-05-26T06:02:32.790Z,1.20
2019-05-26T06:03:32.778Z,1.00
2019-05-26T06:04:32.769Z,1.10
2019-05-26T06:05:32.762Z,1.00
2019-05-26T06:06:32.758Z,0.90
2019-05-26T06:07:32.735Z,1.00
2019-05-26T06:08:32.724Z,0.90
2019-05-26T06:09:32.718Z,1.00
2019-05-26T06:10:32.703Z,1.00
2019-05-26T06:11:42.967Z,0.90
2019-05-26T06:12:32.683Z,1.00
2019-05-26T06:13:32.670Z,1.10
2019-05-26T06:14:32.805Z,1.00
2019-05-26T06:15:32.647Z,1.00
2019-05-26T06:16:32.645Z,1.00
2019-05-26T06:17:32.633Z,1.00
2019-05-26T06:18:32.620Z,1.00
2019-05-26T06:19:32.605Z,0.80
2019-05-26T06:20:32.600Z,1.10
2019-05-26T06:21:32.588Z,0.80
2019-05-26T06:22:32.613Z,0.90
2019-05-26T06:23:36.056Z,0.90
2019-05-26T06:24:32.550Z,0.80
2019-05-26T06:25:32.544Z,0.90
2019-05-26T06:26:32.525Z,0.90
2019-05-26T06:27:32.519Z,0.70
2019-05-26T06:28:32.522Z,1.00
2019-05-26T06:29:32.499Z,0.70
2019-05-26T06:30:32.484Z,0.90
2019-05-26T06:31:32.471Z,1.00
2019-05-26T06:32:32.461Z,0.90
2019-05-26T06:33:32.451Z,0.80
2019-05-26T06:34:32.444Z,0.80
2019-05-26T06:35:32.988Z,0.80
2019-05-26T06:36:32.425Z,0.90
2019-05-26T06:37:32.408Z,0.90
2019-05-26T06:38:32.403Z,0.80
2019-05-26T06:39:32.389Z,0.90
2019-05-26T06:40:32.376Z,0.80
2019-05-26T06:41:34.026Z,0.80
2019-05-26T06:42:42.413Z,1.00
2019-05-26T06:43:32.342Z,0.80
2019-05-26T06:44:32.371Z,1.00
2019-05-26T06:45:32.315Z,0.90
2019-05-26T06:46:32.303Z,0.90
2019-05-26T06:47:32.291Z,0.90
2019-05-26T06:48:32.287Z,0.80
2019-05-26T06:49:32.273Z,0.90
2019-05-26T06:50:32.295Z,0.90
2019-05-26T06:51:32.254Z,0.90
2019-05-26T06:52:32.245Z,0.80
2019-05-26T06:53:32.234Z,0.90
2019-05-26T06:54:32.218Z,0.90
2019-05-26T06:55:32.210Z,0.90
2019-05-26T06:56:32.207Z,0.80
2019-05-26T06:57:32.188Z,0.90
2019-05-26T06:58:32.182Z,0.90
2019-05-26T06:59:32.164Z,0.90
2019-05-26T07:00:32.149Z,0.90
2019-05-26T07:01:32.182Z,0.90
2019-05-26T07:02:32.129Z,1.00
2019-05-26T07:03:32.118Z,0.80
2019-05-26T07:04:32.111Z,1.00
2019-05-26T07:05:32.098Z,0.80
2019-05-26T07:06:32.082Z,0.80
2019-05-26T07:07:32.080Z,0.90
2019-05-26T07:08:32.065Z,0.80
2019-05-26T07:09:32.051Z,0.80
2019-05-26T07:10:32.038Z,0.90
2019-05-26T07:11:49.048Z,0.80
2019-05-26T07:12:33.030Z,0.80
2019-05-26T07:13:43.123Z,0.90
2019-05-26T07:14:31.998Z,0.70
2019-05-26T07:15:31.990Z,0.70
2019-05-26T07:16:38.153Z,0.70
2019-05-26T07:17:32.978Z,0.90
2019-05-26T07:18:31.958Z,0.80
2019-05-26T07:19:31.944Z,0.70
2019-05-26T07:20:31.926Z,0.70
2019-05-26T07:21:31.921Z,0.80
2019-05-26T07:22:31.908Z,0.70
2019-05-26T07:23:31.915Z,0.70
2019-05-26T07:24:31.884Z,0.80
2019-05-26T07:25:31.872Z,0.70
2019-05-26T07:26:31.868Z,0.70
2019-05-26T07:27:31.861Z,0.70
2019-05-26T07:28:31.843Z,0.70
2019-05-26T07:29:31.837Z,0.70
2019-05-26T07:30:31.830Z,0.70
2019-05-26T07:31:31.809Z,0.80
2019-05-26T07:32:31.796Z,0.80
2019-05-26T07:33:31.784Z,0.70
2019-05-26T07:34:31.796Z,0.90
2019-05-26T07:35:33.182Z,0.70
2019-05-26T07:36:31.758Z,0.80
2019-05-26T07:37:31.742Z,0.80
2019-05-26T07:38:31.737Z,0.80
2019-05-26T07:39:31.735Z,0.80
2019-05-26T07:40:31.750Z,0.70
2019-05-26T07:41:31.701Z,0.70
2019-05-26T07:42:31.694Z,0.60
2019-05-26T07:43:31.681Z,0.70
2019-05-26T07:44:42.618Z,0.60
2019-05-26T07:45:31.658Z,0.70
2019-05-26T07:46:31.652Z,0.90
2019-05-26T07:47:31.636Z,0.60
2019-05-26T07:48:35.616Z,0.70
2019-05-26T07:49:31.616Z,0.80
2019-05-26T07:50:31.601Z,0.70
2019-05-26T07:51:31.602Z,0.70
2019-05-26T07:52:31.584Z,0.70
2019-05-26T07:53:31.566Z,0.80
2019-05-26T07:54:31.562Z,0.70
2019-05-26T07:55:31.546Z,0.80
2019-05-26T07:56:31.550Z,0.60
2019-05-26T07:57:31.593Z,0.70
2019-05-26T07:58:31.511Z,0.50
2019-05-26T07:59:31.507Z,0.70
2019-05-26T08:00:31.492Z,0.70
2019-05-26T08:01:36.192Z,0.80
2019-05-26T08:02:32.477Z,0.70
2019-05-26T08:03:31.459Z,0.80
2019-05-26T08:04:31.445Z,0.70
2019-05-26T08:05:31.438Z,0.70
2019-05-26T08:06:31.431Z,0.80
2019-05-26T08:07:31.427Z,0.70
2019-05-26T08:08:31.413Z,0.60
2019-05-26T08:09:31.394Z,0.70
2019-05-26T08:10:31.380Z,0.80
2019-05-26T08:11:31.370Z,0.70
2019-05-26T08:12:31.357Z,0.70
2019-05-26T08:13:31.361Z,0.60
2019-05-26T08:14:31.339Z,0.60
2019-05-26T08:15:42.413Z,0.60
2019-05-26T08:16:31.619Z,0.60
2019-05-26T08:17:31.307Z,0.70
2019-05-26T08:18:31.288Z,0.70
2019-05-26T08:19:31.413Z,0.60
2019-05-26T08:20:31.266Z,0.50
2019-05-26T08:21:31.260Z,0.60
2019-05-26T08:22:31.252Z,0.60
2019-05-26T08:23:31.232Z,0.50
2019-05-26T08:24:31.285Z,0.60
2019-05-26T08:25:31.235Z,0.50
2019-05-26T08:26:31.205Z,0.60
2019-05-26T08:27:31.192Z,0.60
2019-05-26T08:28:31.179Z,0.50
2019-05-26T08:29:31.173Z,0.60
2019-05-26T08:30:31.155Z,0.60
2019-05-26T08:31:31.184Z,0.60
2019-05-26T08:32:31.134Z,0.50
2019-05-26T08:33:31.120Z,0.60
2019-05-26T08:34:31.108Z,0.50
2019-05-26T08:35:31.100Z,0.50
2019-05-26T08:36:31.094Z,0.60
2019-05-26T08:37:31.089Z,0.60
2019-05-26T08:38:31.063Z,0.60
2019-05-26T08:39:31.057Z,0.50
2019-05-26T08:40:31.085Z,0.70
2019-05-26T08:41:31.038Z,0.70
2019-05-26T08:42:43.745Z,0.60
2019-05-26T08:43:32.011Z,0.60
2019-05-26T08:44:30.998Z,0.70
2019-05-26T08:45:30.991Z,0.60
2019-05-26T08:46:43.195Z,0.40
2019-05-26T08:47:30.971Z,0.60
2019-05-26T08:48:30.952Z,0.70
2019-05-26T08:49:30.943Z,0.50
2019-05-26T08:50:34.157Z,0.70
2019-05-26T08:51:30.961Z,0.60
2019-05-26T08:52:30.912Z,0.60
2019-05-26T08:53:30.898Z,0.80
2019-05-26T08:54:30.890Z,0.50
2019-05-26T08:55:30.879Z,0.40
2019-05-26T08:56:30.867Z,0.50
2019-05-26T08:57:30.897Z,0.60
2019-05-26T08:58:30.846Z,0.50
2019-05-26T08:59:30.837Z,0.40
2019-05-26T09:00:30.825Z,0.50
2019-05-26T09:01:30.810Z,0.50
2019-05-26T09:02:30.796Z,0.60
2019-05-26T09:03:30.793Z,0.60
2019-05-26T09:04:30.773Z,0.60
2019-05-26T09:05:30.762Z,0.50
2019-05-26T09:06:30.757Z,0.50
2019-05-26T09:07:30.746Z,0.50
2019-05-26T09:08:30.741Z,0.50
2019-05-26T09:09:30.735Z,0.60
2019-05-26T09:10:30.709Z,0.60
2019-05-26T09:11:30.697Z,0.50
2019-05-26T09:12:30.687Z,0.60
2019-05-26T09:13:30.683Z,0.60
2019-05-26T09:14:30.706Z,0.60
2019-05-26T09:15:30.652Z,0.60
2019-05-26T09:16:30.639Z,0.60
2019-05-26T09:17:41.807Z,0.50
2019-05-26T09:18:30.617Z,0.50
2019-05-26T09:19:30.616Z,0.60
2019-05-26T09:20:30.608Z,0.50
2019-05-26T09:21:30.591Z,0.60
2019-05-26T09:22:30.576Z,0.50
2019-05-26T09:23:30.564Z,0.50
2019-05-26T09:24:30.551Z,0.50
2019-05-26T09:25:30.578Z,0.50
2019-05-26T09:26:30.535Z,0.60
2019-05-26T09:27:30.523Z,0.50
2019-05-26T09:28:30.513Z,0.60
2019-05-26T09:29:30.495Z,0.70
2019-05-26T09:30:30.490Z,0.50
2019-05-26T09:31:33.913Z,0.60
2019-05-26T09:32:30.466Z,0.60
2019-05-26T09:33:30.458Z,0.50
2019-05-26T09:34:30.443Z,0.60
2019-05-26T09:35:30.430Z,0.50
2019-05-26T09:36:30.458Z,0.50
2019-05-26T09:37:30.418Z,0.40
2019-05-26T09:38:30.395Z,0.50
2019-05-26T09:39:30.383Z,0.50
2019-05-26T09:40:30.375Z,0.60
2019-05-26T09:41:30.361Z,0.50
2019-05-26T09:42:30.362Z,0.50
2019-05-26T09:43:30.344Z,0.60
2019-05-26T09:44:30.332Z,0.60
2019-05-26T09:45:30.324Z,0.60
2019-05-26T09:46:30.312Z,0.50
2019-05-26T09:47:30.335Z,0.40
2019-05-26T09:48:40.787Z,0.50
2019-05-26T09:49:30.283Z,0.50
2019-05-26T09:50:30.265Z,0.40
2019-05-26T09:51:30.252Z,0.40
2019-05-26T09:52:30.237Z,0.50
2019-05-26T09:53:30.271Z,0.50
2019-05-26T09:54:30.217Z,0.60
2019-05-26T09:55:30.205Z,0.50
2019-05-26T09:56:30.197Z,0.50
2019-05-26T09:57:30.191Z,0.40
2019-05-26T09:58:30.181Z,0.50
2019-05-26T09:59:30.165Z,0.50
2019-05-26T10:00:30.162Z,0.50
2019-05-26T10:01:30.139Z,0.50
2019-05-26T10:02:30.128Z,0.40
2019-05-26T10:03:30.158Z,0.40
2019-05-26T10:04:30.106Z,0.40
2019-05-26T10:05:30.094Z,0.40
2019-05-26T10:06:30.082Z,0.40
2019-05-26T10:07:30.076Z,0.40
2019-05-26T10:08:30.123Z,0.40
2019-05-26T10:09:30.058Z,0.50
2019-05-26T10:10:30.037Z,0.40
2019-05-26T10:11:30.032Z,0.40
2019-05-26T10:12:30.019Z,0.50
2019-05-26T10:13:32.084Z,0.50
2019-05-26T10:14:30.003Z,0.50
2019-05-26T10:15:29.996Z,0.50
2019-05-26T10:16:29.973Z,0.50
2019-05-26T10:17:29.962Z,0.50
2019-05-26T10:18:29.955Z,0.50
2019-05-26T10:19:40.985Z,0.40
2019-05-26T10:20:29.969Z,0.40
2019-05-26T10:21:29.920Z,0.40
2019-05-26T10:22:29.904Z,0.50
2019-05-26T10:23:29.898Z,0.50
2019-05-26T10:24:29.882Z,0.50
2019-05-26T10:25:29.872Z,0.50
2019-05-26T10:26:29.906Z,0.50
2019-05-26T10:27:29.850Z,0.30
2019-05-26T10:28:29.844Z,0.40
2019-05-26T10:29:29.832Z,0.50
2019-05-26T10:30:29.823Z,0.40
2019-05-26T10:31:29.805Z,0.50
2019-05-26T10:32:29.804Z,0.40
2019-05-26T10:33:29.787Z,0.40
2019-05-26T10:34:29.774Z,0.40
2019-05-26T10:35:29.768Z,0.40
2019-05-26T10:36:29.757Z,0.50
2019-05-26T10:37:29.742Z,0.50
2019-05-26T10:38:29.730Z,0.40
2019-05-26T10:39:29.715Z,0.40
2019-05-26T10:40:29.702Z,0.40
2019-05-26T10:41:29.700Z,0.30
2019-05-26T10:42:29.695Z,0.40
2019-05-26T10:43:29.668Z,0.40
2019-05-26T10:44:29.666Z,0.40
2019-05-26T10:45:29.651Z,0.40
2019-05-26T10:46:29.640Z,0.50
2019-05-26T10:47:29.643Z,0.50
2019-05-26T10:48:29.619Z,0.40
2019-05-26T10:49:29.610Z,0.50
2019-05-26T10:50:40.564Z,0.30
2019-05-26T10:51:29.581Z,0.50
2019-05-26T10:52:29.582Z,0.40
2019-05-26T10:53:29.564Z,0.30
2019-05-26T10:54:29.548Z,0.40
2019-05-26T10:55:29.544Z,0.40
2019-05-26T10:56:29.527Z,0.40
2019-05-26T10:57:29.563Z,0.50
2019-05-26T10:58:29.505Z,0.60
2019-05-26T10:59:31.177Z,0.40
2019-05-26T11:00:32.805Z,0.40
2019-05-26T11:01:29.472Z,0.40
2019-05-26T11:02:29.464Z,0.50
2019-05-26T11:03:29.516Z,0.40
2019-05-26T11:04:29.437Z,0.40
2019-05-26T11:05:29.429Z,0.40
2019-05-26T11:06:29.424Z,0.40
2019-05-26T11:07:29.412Z,0.30
2019-05-26T11:08:29.397Z,0.30
2019-05-26T11:09:29.712Z,0.40
2019-05-26T11:10:29.371Z,0.40
2019-05-26T11:11:29.364Z,0.40
2019-05-26T11:12:29.354Z,0.40
2019-05-26T11:13:29.341Z,0.40
2019-05-26T11:14:29.330Z,0.40
2019-05-26T11:15:29.324Z,0.40
2019-05-26T11:16:29.304Z,0.60
2019-05-26T11:17:29.303Z,0.40
2019-05-26T11:18:29.305Z,0.40
2019-05-26T11:19:29.293Z,0.30
2019-05-26T11:20:29.262Z,0.40
2019-05-26T11:21:39.521Z,0.40
2019-05-26T11:22:29.886Z,0.50
2019-05-26T11:23:29.233Z,0.40
2019-05-26T11:24:29.217Z,0.40
2019-05-26T11:25:29.216Z,0.50
2019-05-26T11:26:29.197Z,0.50
2019-05-26T11:27:29.187Z,0.60
2019-05-26T11:28:29.172Z,0.40
2019-05-26T11:29:29.164Z,0.50
2019-05-26T11:30:29.160Z,0.50
2019-05-26T11:31:29.144Z,0.40
2019-05-26T11:41:29.058Z,0.50
2019-05-26T11:42:29.021Z,0.50
2019-05-26T11:52:39.472Z,0.30
2019-05-26T12:12:28.675Z,0.40
2019-05-26T12:13:28.667Z,0.40
2019-05-26T12:23:38.490Z,0.40
2019-05-26T12:43:28.332Z,0.50
2019-05-26T12:44:28.322Z,0.40
2019-05-26T12:45:28.314Z,0.40
2019-05-26T12:54:38.112Z,0.50
2019-05-26T13:14:27.984Z,0.70
2019-05-26T13:15:27.983Z,0.60
2019-05-26T13:17:27.955Z,0.60
2019-05-26T13:25:40.066Z,0.60
2019-05-26T13:42:27.689Z,0.70
2019-05-26T13:46:27.629Z,0.40
2019-05-26T13:49:27.612Z,0.60
2019-05-26T13:56:37.721Z,0.50
2019-05-26T14:13:27.331Z,0.50
2019-05-26T14:17:27.286Z,0.60
2019-05-26T14:21:27.250Z,0.40
2019-05-26T14:27:37.106Z,0.50
2019-05-26T14:44:26.986Z,0.50
2019-05-26T14:48:26.936Z,0.60
2019-05-26T14:53:26.884Z,0.50
2019-05-26T14:58:38.289Z,0.50
2019-05-26T15:03:26.805Z,0.50
2019-05-26T15:04:26.804Z,0.60
2019-05-26T15:19:26.596Z,0.50
2019-05-26T15:25:26.522Z,0.60
2019-05-26T15:29:37.584Z,0.50
2019-05-26T15:35:26.418Z,0.50
2019-05-26T15:50:26.248Z,0.40
2019-05-26T15:57:26.166Z,0.40
2019-05-26T16:00:35.998Z,0.40
2019-05-26T16:06:26.070Z,0.40
2019-05-26T16:21:27.947Z,0.50
2019-05-26T16:29:25.814Z,0.30
2019-05-26T16:31:36.324Z,0.40
2019-05-26T16:37:25.726Z,0.40
2019-05-26T16:52:25.559Z,0.40
2019-05-26T17:01:25.461Z,0.40
2019-05-26T17:02:36.272Z,0.30
2019-05-26T17:08:25.384Z,0.40
2019-05-26T17:23:25.209Z,0.40
2019-05-26T17:33:36.306Z,0.40
2019-05-26T17:39:25.031Z,0.60
2019-05-26T17:54:24.864Z,0.50
2019-05-26T18:04:35.229Z,0.50
2019-05-26T18:05:24.747Z,0.70
2019-05-26T18:10:24.689Z,0.50
2019-05-26T18:25:24.529Z,0.50
2019-05-26T18:35:34.765Z,0.60
2019-05-26T18:37:24.399Z,0.50
2019-05-26T18:41:24.348Z,0.50
2019-05-26T18:55:24.185Z,0.40
2019-05-26T18:56:24.179Z,0.30
2019-05-26T18:58:24.156Z,0.40
2019-05-26T18:59:24.169Z,0.40
2019-05-26T19:00:30.478Z,0.40
2019-05-26T19:01:25.117Z,0.50
2019-05-26T19:02:24.112Z,0.40
2019-05-26T19:03:24.121Z,0.40
2019-05-26T19:04:24.090Z,0.40
2019-05-26T19:05:32.987Z,0.50
2019-05-26T19:07:36.743Z,0.40
2019-05-26T19:08:36.721Z,0.50
2019-05-26T19:09:36.715Z,0.40
2019-05-26T19:10:36.717Z,0.40
2019-05-26T19:11:36.692Z,0.30
2019-05-26T19:12:36.684Z,0.40
2019-05-26T19:13:36.673Z,0.40
2019-05-26T19:14:36.664Z,0.40
2019-05-26T19:15:36.653Z,0.30
2019-05-26T19:16:36.677Z,0.30
2019-05-26T19:17:36.631Z,0.30
2019-05-26T19:18:36.616Z,0.30
2019-05-26T19:19:36.607Z,0.40
2019-05-26T19:20:36.590Z,0.40
2019-05-26T19:21:36.586Z,0.30
2019-05-26T19:22:36.583Z,0.30
2019-05-26T19:23:36.558Z,0.30
2019-05-26T19:24:36.552Z,0.30
2019-05-26T19:25:36.540Z,0.30
2019-05-26T19:26:36.562Z,0.30
2019-05-26T19:27:36.514Z,0.20
2019-05-26T19:28:36.501Z,0.30
2019-05-26T19:29:36.490Z,0.20
2019-05-26T19:30:36.479Z,0.30
2019-05-26T19:31:36.475Z,0.30
2019-05-26T19:32:36.479Z,0.30
2019-05-26T19:33:36.445Z,0.20
2019-05-26T19:34:36.438Z,0.30
2019-05-26T19:35:36.427Z,0.30
2019-05-26T19:36:36.481Z,0.30
2019-05-26T19:37:43.575Z,0.20
2019-05-26T19:38:36.394Z,0.20
2019-05-26T19:39:36.387Z,0.20
2019-05-26T19:40:36.371Z,0.20
2019-05-26T19:41:39.079Z,0.20
2019-05-26T19:42:36.383Z,0.20
2019-05-26T19:43:36.337Z,0.20
2019-05-26T19:44:36.322Z,0.20
2019-05-26T19:45:36.315Z,0.30
2019-05-26T19:46:36.300Z,0.20
2019-05-26T19:47:36.290Z,0.20
2019-05-26T19:48:37.325Z,0.30
2019-05-26T19:49:36.268Z,0.20
2019-05-26T19:50:36.255Z,0.10
2019-05-26T19:51:36.244Z,0.20